Time;durP1;ratioP1;P1;durP2;ratioP2;P2;SDS_P1;SDS_P2;PMS_P1;PMS_P2;Temp;Humidity;BMP_temperature;BMP_pressure;BME280_temperature;BME280_humidity;BME280_pressure;Samples;Min_cycle;Max_cycle;Signal;HPM_P1;HPM_P2
2022/07/21 00:00:29;;;;;;;11.75;5.82;;;;;;;19.86;57.87;95129.88;5095200;28;20201;-80
2022/07/21 00:02:56;;;;;;;14.75;5.35;;;;;;;19.75;58.06;95120.19;5094989;28;20170;-80
2022/07/21 00:05:22;;;;;;;8.95;4.45;;;;;;;19.94;58.09;95148.06;5095348;28;20189;-80
2022/07/21 00:07:48;;;;;;;13.52;3.63;;;;;;;19.89;58.54;95146.16;5095056;28;20177;-80
2022/07/21 00:10:15;;;;;;;12.00;4.70;;;;;;;19.68;58.52;95128.47;5095275;28;20557;-80
2022/07/21 00:12:41;;;;;;;11.38;4.78;;;;;;;19.76;58.83;95152.00;5094539;28;20617;-80
2022/07/21 00:15:08;;;;;;;7.75;3.60;;;;;;;19.69;58.56;95150.63;5094995;28;20181;-80
2022/07/21 00:17:34;;;;;;;11.93;3.55;;;;;;;19.63;58.95;95144.47;5094623;28;20651;-80
2022/07/21 00:20:00;;;;;;;7.82;4.40;;;;;;;19.51;59.09;95135.84;5094983;28;20177;-80
2022/07/21 00:22:26;;;;;;;7.40;3.60;;;;;;;19.45;59.10;95131.53;5094864;28;20550;-80
2022/07/21 00:24:51;;;;;;;8.77;3.90;;;;;;;19.56;59.05;95155.38;5095035;28;20229;-80
2022/07/21 00:27:17;;;;;;;9.85;3.45;;;;;;;19.46;59.02;95144.59;5094951;28;20178;-80
2022/07/21 00:29:42;;;;;;;6.38;3.30;;;;;;;19.39;58.94;95149.38;5094351;28;20366;-80
2022/07/21 00:32:07;;;;;;;14.93;4.18;;;;;;;19.39;59.32;95145.91;5094778;28;20645;-80
2022/07/21 00:34:33;;;;;;;7.13;3.25;;;;;;;19.30;59.63;95121.53;5094742;28;20162;-80
2022/07/21 00:36:59;;;;;;;10.77;3.30;;;;;;;19.37;59.50;95132.03;5094391;28;20174;-80
2022/07/21 00:39:24;;;;;;;5.85;2.70;;;;;;;19.38;59.42;95134.41;5094344;28;20626;-80
2022/07/21 00:41:50;;;;;;;2.97;2.63;;;;;;;19.39;59.33;95138.69;5094244;28;20279;-80
2022/07/21 00:44:24;;;;;;;6.28;2.95;;;;;;;19.44;59.68;95159.28;5094397;28;20169;-80
2022/07/21 00:46:50;;;;;;;8.30;3.00;;;;;;;19.42;59.94;95156.06;5086069;28;20638;-79
2022/07/21 00:49:16;;;;;;;3.92;3.03;;;;;;;19.38;59.80;95149.63;5094196;28;20174;-79
2022/07/21 00:51:41;;;;;;;5.32;3.20;;;;;;;19.42;59.79;95146.19;5093990;28;20182;-79
2022/07/21 00:54:07;;;;;;;9.98;4.25;;;;;;;19.39;60.14;95148.56;5094165;28;20180;-80
2022/07/21 00:56:33;;;;;;;15.70;9.45;;;;;;;19.29;60.31;95141.28;5094078;28;20212;-79
2022/07/21 00:58:58;;;;;;;6.13;3.50;;;;;;;19.04;60.50;95112.59;5094026;28;20285;-80
2022/07/21 01:01:24;;;;;;;4.97;3.13;;;;;;;18.97;60.89;95116.53;5093970;28;20201;-80
2022/07/21 01:03:49;;;;;;;6.30;2.80;;;;;;;18.93;61.24;95116.25;5093163;28;20231;-80
2022/07/21 01:06:14;;;;;;;4.00;2.83;;;;;;;18.74;61.87;95112.38;5093628;28;20231;-80
2022/07/21 01:08:40;;;;;;;5.43;3.30;;;;;;;18.73;61.91;95106.22;5093592;28;20678;-80
2022/07/21 01:11:06;;;;;;;4.18;2.70;;;;;;;18.99;62.13;95141.91;5093684;28;20177;-80
2022/07/21 01:13:32;;;;;;;6.47;3.08;;;;;;;18.96;61.84;95134.41;5092908;28;20180;-80
2022/07/21 01:15:57;;;;;;;8.90;4.28;;;;;;;18.82;62.22;95117.25;5093406;28;20176;-80
2022/07/21 01:18:23;;;;;;;5.95;2.80;;;;;;;18.90;62.51;95138.09;5093181;28;20185;-80
2022/07/21 01:20:53;;;;;;;6.07;2.88;;;;;;;18.87;62.45;95135.13;5093416;28;20574;-80
2022/07/21 01:23:20;;;;;;;6.32;3.75;;;;;;;18.85;62.83;95132.75;5093120;28;20839;-80
2022/07/21 01:25:50;;;;;;;7.97;2.95;;;;;;;18.76;62.68;95121.75;5093451;28;20177;-80
2022/07/21 01:28:16;;;;;;;4.45;2.90;;;;;;;18.78;63.07;95130.28;5093538;28;20165;-80
2022/07/21 01:30:41;;;;;;;10.65;3.88;;;;;;;18.81;63.11;95128.97;5091817;28;20759;-80
2022/07/21 01:33:07;;;;;;;7.20;3.95;;;;;;;18.83;63.04;95138.34;5093433;28;20165;-80
2022/07/21 01:35:32;;;;;;;16.45;4.20;;;;;;;18.75;62.95;95111.31;5093178;28;20561;-80
2022/07/21 01:38:00;;;;;;;11.48;3.85;;;;;;;18.78;63.15;95135.59;5092889;28;20335;-81
2022/07/21 01:43:09;;;;;;;12.82;3.58;;;;;;;18.57;63.50;95101.03;5092914;28;20706;-81
2022/07/21 01:45:35;;;;;;;9.68;3.15;;;;;;;18.71;63.55;95121.69;5091721;28;20205;-81
2022/07/21 01:48:00;;;;;;;6.45;3.40;;;;;;;18.68;63.52;95113.41;5092984;28;20170;-81
2022/07/21 01:50:26;;;;;;;5.82;3.20;;;;;;;18.67;63.47;95117.94;5092797;28;20646;-81
2022/07/21 01:52:56;;;;;;;5.80;3.80;;;;;;;18.68;63.55;95122.19;5092742;28;20560;-81
2022/07/21 01:55:24;;;;;;;5.18;3.25;;;;;;;18.58;62.77;95099.97;5093065;28;20610;-81
2022/07/21 01:57:49;;;;;;;7.95;3.70;;;;;;;18.71;63.02;95118.22;5092553;28;20261;-81
2022/07/21 02:00:15;;;;;;;6.93;2.70;;;;;;;18.67;62.83;95122.47;5092513;28;20169;-81
2022/07/21 02:02:40;;;;;;;6.05;3.05;;;;;;;18.57;63.47;95117.03;5092502;28;20178;-81
2022/07/21 02:05:06;;;;;;;6.88;3.35;;;;;;;18.53;63.57;95115.88;5092811;28;20173;-81
2022/07/21 02:07:32;;;;;;;3.42;2.83;;;;;;;18.56;63.66;95121.53;5091090;28;20181;-81
2022/07/21 02:09:57;;;;;;;4.75;3.15;;;;;;;18.59;63.67;95125.59;5092330;28;20227;-81
2022/07/21 02:12:23;;;;;;;5.70;3.33;;;;;;;18.58;63.59;95118.66;5092550;28;20176;-81
2022/07/21 02:14:49;;;;;;;8.38;3.25;;;;;;;18.47;63.77;95118.53;5091647;28;20231;-81
2022/07/21 02:17:14;;;;;;;4.68;3.10;;;;;;;18.46;64.05;95122.25;5092234;28;20300;-82
2022/07/21 02:19:40;;;;;;;11.82;6.10;;;;;;;18.31;64.11;95091.97;5092203;28;20613;-82
2022/07/21 02:22:06;;;;;;;6.97;3.10;;;;;;;18.38;64.11;95097.91;5092171;28;20174;-82
2022/07/21 02:24:31;;;;;;;7.53;2.80;;;;;;;18.33;64.00;95096.00;5092376;28;20185;-82
2022/07/21 02:26:56;;;;;;;6.93;3.25;;;;;;;18.24;64.18;95080.72;5092179;28;20205;-83
2022/07/21 02:29:22;;;;;;;7.55;4.75;;;;;;;18.26;64.32;95087.41;5091907;28;20214;-83
2022/07/21 02:31:47;;;;;;;8.07;3.35;;;;;;;18.04;63.85;95063.50;5092010;28;20295;-82
2022/07/21 02:34:13;;;;;;;5.95;3.22;;;;;;;18.32;64.51;95121.06;5092086;28;20181;-82
2022/07/21 02:36:39;;;;;;;5.57;3.40;;;;;;;18.29;64.53;95121.56;5092089;28;20189;-82
2022/07/21 02:39:05;;;;;;;6.25;3.17;;;;;;;18.21;64.42;95111.34;5092024;28;20207;-82
2022/07/21 02:41:30;;;;;;;7.68;3.92;;;;;;;18.25;64.04;95117.75;5091988;28;20662;-82
2022/07/21 02:43:56;;;;;;;6.78;3.88;;;;;;;18.08;64.17;95088.56;5092377;28;20172;-82
2022/07/21 02:46:21;;;;;;;6.10;3.50;;;;;;;18.25;64.30;95120.44;5092042;28;20165;-82
2022/07/21 02:48:47;;;;;;;8.00;4.07;;;;;;;18.29;64.08;95120.75;5091999;28;20668;-81
2022/07/21 02:51:12;;;;;;;13.07;3.30;;;;;;;18.24;64.29;95102.84;5092039;28;20170;-81
2022/07/21 02:53:38;;;;;;;12.02;3.67;;;;;;;18.29;64.34;95116.22;5092314;28;20186;-81
2022/07/21 02:56:03;;;;;;;4.20;3.45;;;;;;;18.21;64.48;95118.53;5092206;28;20174;-85
2022/07/21 02:58:29;;;;;;;7.30;3.47;;;;;;;17.98;63.79;95087.69;5091739;28;20193;-80
2022/07/21 03:00:58;;;;;;;8.10;3.28;;;;;;;17.81;63.77;95074.44;5092459;28;20174;-81
2022/07/21 03:03:27;;;;;;;10.10;3.70;;;;;;;17.93;64.16;95087.59;5092006;28;20242;-80
2022/07/21 03:05:53;;;;;;;5.07;2.88;;;;;;;17.83;63.57;95072.31;5092037;28;20591;-81
2022/07/21 03:08:19;;;;;;;4.15;2.65;;;;;;;17.83;64.15;95068.84;5091970;28;20177;-82
2022/07/21 03:10:45;;;;;;;4.50;3.20;;;;;;;17.75;64.13;95058.66;5091880;28;20613;-82
2022/07/21 03:13:11;;;;;;;7.45;3.55;;;;;;;18.12;64.14;95120.84;5090582;28;20664;-82
2022/07/21 03:15:37;;;;;;;4.78;3.17;;;;;;;18.00;63.93;95093.53;5091730;28;20170;-82
2022/07/21 03:18:02;;;;;;;11.30;3.92;;;;;;;18.18;63.68;95121.69;5091215;28;20281;-82
2022/07/21 03:20:30;;;;;;;9.05;5.32;;;;;;;18.06;63.70;95105.88;5091515;28;20185;-82
2022/07/21 03:22:56;;;;;;;20.23;9.68;;;;;;;18.07;63.89;95112.81;5090287;28;20181;-82
2022/07/21 03:25:22;;;;;;;6.20;3.30;;;;;;;17.97;63.54;95102.84;5091809;28;20174;-83
2022/07/21 03:27:48;;;;;;;9.45;6.00;;;;;;;17.93;63.48;95088.41;5094693;28;20182;-82
2022/07/21 03:30:16;;;;;;;14.63;4.85;;;;;;;18.21;63.34;95122.00;5093904;28;20642;-82
2022/07/21 03:32:41;;;;;;;11.90;4.63;;;;;;;18.22;63.04;95125.47;5095335;28;20166;-82
2022/07/21 03:35:10;;;;;;;12.00;5.05;;;;;;;18.21;63.02;95134.53;5095232;28;20562;-82
2022/07/21 03:37:42;;;;;;;7.55;3.58;;;;;;;18.14;63.04;95129.41;5095436;28;20192;-80
2022/07/21 03:40:09;;;;;;;7.75;3.60;;;;;;;18.06;62.91;95116.53;5093612;28;20174;-80
2022/07/21 03:42:35;;;;;;;12.70;5.32;;;;;;;17.85;63.55;95088.84;5095427;28;20220;-80
2022/07/21 03:45:00;;;;;;;10.70;3.88;;;;;;;18.23;63.30;95132.41;5095244;28;20177;-80
2022/07/21 03:47:25;;;;;;;8.60;3.75;;;;;;;18.25;63.18;95133.75;5094838;28;20196;-80
2022/07/21 03:49:51;;;;;;;9.48;4.82;;;;;;;18.32;63.55;95130.91;5094981;28;20178;-80
2022/07/21 03:52:16;;;;;;;7.97;2.67;;;;;;;18.45;62.92;95135.81;5095113;28;20174;-80
2022/07/21 03:54:42;;;;;;;5.97;2.83;;;;;;;18.56;62.71;95129.53;5095207;28;20177;-80
2022/07/21 03:57:07;;;;;;;4.93;3.38;;;;;;;18.72;63.28;95138.50;5094512;28;20206;-80
2022/07/21 03:59:32;;;;;;;4.45;3.55;;;;;;;18.80;62.96;95130.81;5094554;28;20626;-81
2022/07/21 04:01:58;;;;;;;8.45;2.70;;;;;;;18.93;62.04;95129.59;5094661;28;20187;-83
2022/07/21 04:04:23;;;;;;;8.77;3.42;;;;;;;19.09;60.84;95135.84;5094356;28;20178;-81
2022/07/21 04:06:49;;;;;;;8.82;3.88;;;;;;;19.29;60.78;95140.50;5094437;28;20214;-81
2022/07/21 04:09:14;;;;;;;7.72;2.65;;;;;;;19.46;60.01;95141.16;5094663;28;20696;-81
2022/07/21 04:11:39;;;;;;;14.90;5.70;;;;;;;19.64;60.41;95143.38;5093238;28;20197;-81
2022/07/21 04:14:05;;;;;;;14.02;6.97;;;;;;;19.72;59.82;95126.84;5094448;28;20203;-81
2022/07/21 04:16:30;;;;;;;17.83;10.82;;;;;;;19.93;59.31;95139.25;5093048;28;20181;-81
2022/07/21 04:18:56;;;;;;;28.10;13.85;;;;;;;19.97;59.17;95120.84;5094343;28;20578;-81
2022/07/21 04:21:21;;;;;;;9.18;5.63;;;;;;;20.25;58.43;95143.59;5094698;28;20186;-80
2022/07/21 04:23:46;;;;;;;13.02;7.40;;;;;;;20.39;58.00;95146.63;5094609;28;20197;-81
2022/07/21 04:26:12;;;;;;;15.45;5.32;;;;;;;20.52;58.12;95149.59;5094619;28;20174;-81
2022/07/21 04:28:37;;;;;;;28.45;17.73;;;;;;;20.61;56.99;95137.28;5093972;28;20177;-81
2022/07/21 04:31:03;;;;;;;5.68;2.92;;;;;;;20.58;55.57;95095.00;5093950;28;20221;-81
2022/07/21 04:33:28;;;;;;;29.90;20.67;;;;;;;21.05;55.59;95150.94;5094208;28;20174;-81
2022/07/21 04:35:54;;;;;;;14.95;9.32;;;;;;;21.15;55.29;95142.09;5093839;28;20623;-81
2022/07/21 04:38:19;;;;;;;10.13;5.90;;;;;;;21.33;54.49;95152.28;5091892;28;20214;-79
2022/07/21 04:40:45;;;;;;;9.25;3.30;;;;;;;21.49;54.20;95154.94;5094010;28;20170;-79
2022/07/21 04:43:10;;;;;;;9.82;3.22;;;;;;;21.68;53.81;95145.25;5094577;28;21707;-79
2022/07/21 04:45:36;;;;;;;11.43;6.40;;;;;;;21.90;53.15;95151.03;5094321;28;20173;-81
2022/07/21 04:48:02;;;;;;;11.07;6.20;;;;;;;22.17;52.32;95148.00;5093707;28;20218;-79
2022/07/21 04:50:27;;;;;;;11.73;7.10;;;;;;;22.37;51.86;95147.09;5088368;28;20207;-81
2022/07/21 04:52:54;;;;;;;8.20;4.03;;;;;;;22.62;51.33;95141.59;5093846;28;20178;-81
2022/07/21 04:55:20;;;;;;;10.38;4.50;;;;;;;22.99;49.52;95167.13;5093922;28;20173;-79
2022/07/21 04:57:48;;;;;;;6.45;2.35;;;;;;;23.21;47.97;95157.53;5093671;28;20228;-82
2022/07/21 05:00:17;;;;;;;4.88;2.45;;;;;;;23.60;47.48;95160.16;5093609;28;20166;-80
2022/07/21 05:02:43;;;;;;;5.78;2.80;;;;;;;23.94;46.01;95162.72;5093783;28;20177;-80
2022/07/21 05:05:09;;;;;;;4.32;2.65;;;;;;;24.26;45.35;95156.69;5093145;28;20178;-79
2022/07/21 05:07:35;;;;;;;7.50;2.63;;;;;;;24.32;44.98;95117.84;5093105;28;20184;-79
2022/07/21 05:10:13;;;;;;;8.30;2.63;;;;;;;24.72;43.10;95161.47;5083144;28;20312;-80
2022/07/21 05:12:39;;;;;;;5.95;2.53;;;;;;;24.80;42.46;95156.22;5090716;28;20185;-80
2022/07/21 05:15:06;;;;;;;6.90;3.10;;;;;;;25.27;42.75;95164.38;5090465;28;20181;-80
2022/07/21 05:17:31;;;;;;;5.68;2.95;;;;;;;25.68;41.80;95153.72;5092270;28;20204;-80
2022/07/21 05:19:59;;;;;;;2.97;2.17;;;;;;;26.23;40.45;95159.91;5090689;28;20178;-80
2022/07/21 05:22:24;;;;;;;5.43;2.20;;;;;;;26.57;40.31;95127.84;5091846;28;20177;-80
2022/07/21 05:24:50;;;;;;;5.78;2.10;;;;;;;27.24;37.95;95149.56;5092982;28;20992;-80
2022/07/21 05:27:15;;;;;;;5.40;2.80;;;;;;;27.70;37.31;95143.75;5090681;28;20174;-80
2022/07/21 05:29:41;;;;;;;5.05;2.22;;;;;;;28.39;36.72;95167.59;5089158;28;20218;-80
2022/07/21 05:32:07;;;;;;;5.95;2.30;;;;;;;28.95;36.23;95166.75;5091399;28;20645;-80
2022/07/21 05:34:32;;;;;;;9.48;2.90;;;;;;;29.27;33.63;95166.22;5087672;28;20182;-80
2022/07/21 05:36:57;;;;;;;6.90;3.13;;;;;;;29.58;33.93;95167.94;5092204;28;20185;-79
2022/07/21 05:39:23;;;;;;;10.70;2.78;;;;;;;30.06;33.09;95170.38;5092909;28;20181;-78
2022/07/21 05:41:49;;;;;;;4.47;2.10;;;;;;;30.31;33.02;95171.38;5091317;28;20235;-78
2022/07/21 05:44:14;;;;;;;5.53;3.17;;;;;;;30.58;32.29;95168.22;5090218;28;20669;-79
2022/07/21 05:46:40;;;;;;;5.05;2.42;;;;;;;30.65;32.04;95157.59;5086940;28;20176;-79
2022/07/21 05:49:05;;;;;;;8.05;2.65;;;;;;;30.74;32.15;95165.69;5087447;28;20165;-80
2022/07/21 05:51:30;;;;;;;4.25;2.38;;;;;;;30.80;31.90;95166.28;5089402;28;20174;-79
2022/07/21 05:53:56;;;;;;;5.38;2.67;;;;;;;30.39;31.74;95143.34;5086093;28;20178;-79
2022/07/21 05:56:21;;;;;;;5.55;2.40;;;;;;;30.38;32.24;95163.50;5092307;28;20189;-79
2022/07/21 05:58:47;;;;;;;2.50;1.95;;;;;;;29.82;32.21;95167.41;5092180;28;20212;-80
2022/07/21 06:01:12;;;;;;;3.35;2.38;;;;;;;29.58;34.25;95133.47;5091845;28;20870;-80
2022/07/21 06:03:40;;;;;;;4.88;2.33;;;;;;;29.84;33.34;95162.47;5093250;28;20212;-80
2022/07/21 06:06:06;;;;;;;11.98;2.85;;;;;;;29.62;33.15;95142.56;5092581;28;20178;-80
2022/07/21 06:08:32;;;;;;;4.35;2.42;;;;;;;29.59;33.21;95145.91;5092473;28;20562;-80
2022/07/21 06:10:57;;;;;;;7.47;2.60;;;;;;;29.46;34.33;95160.50;5092020;28;20638;-81
2022/07/21 06:13:23;;;;;;;12.45;2.85;;;;;;;29.36;35.31;95155.41;5085303;28;20575;-79
2022/07/21 06:15:48;;;;;;;6.25;3.00;;;;;;;29.32;33.97;95157.13;5086529;28;20189;-80
2022/07/21 06:18:14;;;;;;;5.43;2.63;;;;;;;29.22;33.76;95160.19;5092276;28;20586;-80
2022/07/21 06:20:40;;;;;;;6.28;2.67;;;;;;;29.13;35.19;95157.47;5092334;28;20201;-80
2022/07/21 06:23:06;;;;;;;4.95;2.30;;;;;;;29.16;37.00;95150.59;5092430;28;20694;-80
2022/07/21 06:25:32;;;;;;;5.20;2.47;;;;;;;29.18;35.65;95134.81;5091514;28;20625;-81
2022/07/21 06:27:57;;;;;;;6.57;3.20;;;;;;;29.13;35.95;95135.00;5091591;28;20580;-81
2022/07/21 06:30:24;;;;;;;6.88;2.40;;;;;;;28.84;35.69;95117.47;5091740;28;20189;-81
2022/07/21 06:32:49;;;;;;;6.40;2.42;;;;;;;29.06;37.04;95150.94;5091602;28;20193;-82
2022/07/21 06:35:15;;;;;;;5.47;3.05;;;;;;;29.35;37.83;95140.19;5092086;28;20646;-79
2022/07/21 06:37:46;;;;;;;9.05;3.28;;;;;;;29.73;36.86;95136.78;5092561;28;20185;-79
2022/07/21 06:40:13;;;;;;;4.07;2.80;;;;;;;29.97;35.15;95126.16;5092128;28;20164;-79
2022/07/21 06:42:38;;;;;;;6.55;3.00;;;;;;;30.17;34.48;95136.31;5091907;28;20562;-79
2022/07/21 06:45:04;;;;;;;6.40;2.78;;;;;;;30.36;35.47;95133.13;5091932;28;20693;-79
2022/07/21 06:47:30;;;;;;;9.20;2.85;;;;;;;30.61;33.61;95132.22;5091978;28;20611;-80
2022/07/21 06:49:57;;;;;;;8.70;2.97;;;;;;;30.68;35.07;95120.81;5090323;28;20165;-80
2022/07/21 06:52:23;;;;;;;5.82;2.90;;;;;;;31.02;34.09;95131.41;5091366;28;20178;-79
2022/07/21 06:54:48;;;;;;;10.98;2.92;;;;;;;31.29;34.54;95132.78;5091368;28;20178;-80
2022/07/21 06:57:13;;;;;;;3.40;2.55;;;;;;;31.73;33.73;95135.88;5091020;28;20176;-79
2022/07/21 06:59:39;;;;;;;5.55;2.88;;;;;;;31.50;33.01;95121.81;5091480;28;20181;-79
2022/07/21 07:02:08;;;;;;;9.98;3.25;;;;;;;31.63;33.50;95137.09;5094235;28;20644;-79
2022/07/21 07:04:33;;;;;;;4.85;2.55;;;;;;;31.95;33.31;95130.00;5092646;28;20184;-78
2022/07/21 07:06:59;;;;;;;7.40;2.85;;;;;;;32.00;33.22;95110.69;5095954;28;20169;-79
2022/07/21 07:09:24;;;;;;;18.92;3.78;;;;;;;32.54;33.14;95127.59;5094515;28;20555;-80
2022/07/21 07:11:52;;;;;;;6.00;2.65;;;;;;;32.92;31.83;95127.19;5095375;28;20706;-80
2022/07/21 07:14:18;;;;;;;2.55;2.20;;;;;;;33.26;31.21;95114.94;5096189;28;20189;-80
2022/07/21 07:16:43;;;;;;;13.98;3.88;;;;;;;33.49;31.49;95117.88;5096031;28;20174;-80
2022/07/21 07:19:09;;;;;;;6.40;2.45;;;;;;;33.82;30.27;95127.72;5095866;28;20193;-79
2022/07/21 07:21:34;;;;;;;7.57;2.65;;;;;;;33.88;30.05;95115.38;5095802;28;20170;-78
2022/07/21 07:24:01;;;;;;;8.20;2.78;;;;;;;33.56;29.47;95125.44;5096082;28;20702;-79
2022/07/21 07:26:28;;;;;;;5.35;2.47;;;;;;;33.56;31.12;95122.72;5095491;28;20327;-79
2022/07/21 07:28:53;;;;;;;9.82;3.30;;;;;;;33.64;30.09;95103.44;5095244;28;20637;-79
2022/07/21 07:31:19;;;;;;;5.03;2.78;;;;;;;33.57;31.41;95121.56;5095312;28;20217;-79
2022/07/21 07:33:44;;;;;;;9.65;2.55;;;;;;;33.62;30.58;95122.13;5095503;28;20182;-79
2022/07/21 07:36:12;;;;;;;2.40;2.20;;;;;;;33.62;29.98;95113.13;5094102;28;20248;-78
2022/07/21 07:38:38;;;;;;;5.03;2.55;;;;;;;33.87;30.47;95116.53;5095483;28;20198;-79
2022/07/21 07:41:04;;;;;;;2.92;2.63;;;;;;;33.73;29.16;95081.47;5095132;28;20170;-79
2022/07/21 07:43:29;;;;;;;8.85;3.80;;;;;;;33.77;29.52;95100.66;5094500;28;20172;-78
2022/07/21 07:45:55;;;;;;;2.58;2.00;;;;;;;33.89;30.89;95104.09;5094473;28;20166;-79
2022/07/21 07:48:20;;;;;;;3.70;2.50;;;;;;;33.86;29.71;95107.53;5095237;28;20162;-79
2022/07/21 07:50:46;;;;;;;5.95;2.67;;;;;;;33.41;29.91;95088.78;5095375;28;20223;-78
2022/07/21 07:53:11;;;;;;;3.08;2.20;;;;;;;32.80;30.82;95085.50;5095286;28;20166;-79
2022/07/21 07:55:37;;;;;;;4.50;2.28;;;;;;;32.94;31.96;95086.72;5094894;28;20646;-79
2022/07/21 07:58:03;;;;;;;7.97;2.90;;;;;;;33.16;31.57;95063.53;5094689;28;20571;-79
2022/07/21 08:00:28;;;;;;;5.32;2.70;;;;;;;33.34;31.07;95094.06;5095058;28;20178;-78
2022/07/21 08:02:54;;;;;;;5.95;2.33;;;;;;;33.06;31.21;95087.78;5094994;28;20250;-78
2022/07/21 08:05:19;;;;;;;5.00;2.00;;;;;;;33.52;31.27;95089.06;5094738;28;20202;-79
2022/07/21 08:07:45;;;;;;;7.13;2.50;;;;;;;33.96;31.68;95087.88;5094719;28;20533;-79
2022/07/21 08:10:12;;;;;;;10.73;2.65;;;;;;;34.55;30.36;95089.63;5093726;28;20666;-79
2022/07/21 08:12:39;;;;;;;5.93;2.50;;;;;;;34.78;28.34;95085.06;5094266;28;20170;-79
2022/07/21 08:15:05;;;;;;;3.75;2.90;;;;;;;34.78;27.41;95079.59;5094371;28;20185;-77
2022/07/21 08:17:30;;;;;;;7.45;3.33;;;;;;;34.38;29.24;95062.69;5094942;28;20194;-81
2022/07/21 08:19:56;;;;;;;5.18;2.20;;;;;;;33.95;29.29;95039.03;5094589;28;20200;-80
2022/07/21 08:22:21;;;;;;;3.15;2.17;;;;;;;34.22;29.14;95073.66;5094717;28;20197;-80
2022/07/21 08:24:47;;;;;;;4.75;2.28;;;;;;;34.08;28.81;95074.09;5091882;28;20184;-79
2022/07/21 08:27:13;;;;;;;4.10;2.92;;;;;;;34.08;29.13;95062.34;5094460;28;20165;-80
2022/07/21 08:29:38;;;;;;;8.75;2.75;;;;;;;34.39;28.57;95043.19;5092328;28;20171;-79
2022/07/21 08:32:04;;;;;;;4.00;2.38;;;;;;;34.73;29.83;95058.00;5090318;28;20217;-80
2022/07/21 08:34:30;;;;;;;4.50;3.67;;;;;;;35.17;27.54;95063.97;5089634;28;20565;-79
2022/07/21 08:36:57;;;;;;;3.05;2.75;;;;;;;35.28;27.75;95058.72;5093964;28;20261;-79
2022/07/21 08:39:22;;;;;;;4.55;2.70;;;;;;;35.35;27.81;95064.31;5094359;28;20554;-79
2022/07/21 08:41:49;;;;;;;4.72;2.97;;;;;;;35.42;27.18;95053.50;5093826;28;20177;-78
2022/07/21 08:44:14;;;;;;;4.28;2.95;;;;;;;35.58;27.87;95056.09;5093350;28;20260;-77
2022/07/21 08:46:41;;;;;;;8.38;2.88;;;;;;;35.62;27.64;95058.94;5093065;28;20158;-77
2022/07/21 08:49:09;;;;;;;4.53;3.58;;;;;;;35.66;27.36;95057.03;5093058;28;20170;-77
2022/07/21 08:51:34;;;;;;;6.20;4.22;;;;;;;35.53;26.22;95045.47;5092093;28;20189;-77
2022/07/21 08:54:01;;;;;;;5.00;2.97;;;;;;;35.36;26.58;95054.97;5091966;28;20169;-77
2022/07/21 08:56:26;;;;;;;3.30;1.92;;;;;;;35.29;26.44;95038.38;5090708;28;20644;-77
2022/07/21 08:58:52;;;;;;;7.78;2.17;;;;;;;35.41;26.93;95054.66;5091098;28;20185;-77
2022/07/21 09:01:17;;;;;;;4.40;2.63;;;;;;;35.64;26.32;95040.94;5090839;28;20668;-77
2022/07/21 09:03:42;;;;;;;7.97;2.85;;;;;;;35.41;26.11;95035.47;5091844;28;20569;-77
2022/07/21 09:06:15;;;;;;;5.72;2.33;;;;;;;35.14;26.38;95036.50;5091873;28;20169;-77
2022/07/21 09:08:51;;;;;;;2.95;1.98;;;;;;;35.02;28.22;95031.22;5091838;28;20263;-77
2022/07/21 09:11:20;;;;;;;2.65;1.92;;;;;;;35.06;26.58;95029.31;5091412;28;20649;-77
2022/07/21 09:14:03;;;;;;;4.57;1.92;;;;;;;34.85;27.43;95016.03;5089841;28;20166;-77
2022/07/21 09:16:59;;;;;;;8.77;2.70;;;;;;;34.60;27.79;95028.38;5089720;28;20177;-77
2022/07/21 09:19:35;;;;;;;6.13;2.22;;;;;;;34.40;27.91;95020.16;5076617;28;20220;-77
2022/07/21 09:22:04;;;;;;;5.18;2.88;;;;;;;34.45;27.92;95025.34;5089560;28;20157;-77
2022/07/21 09:24:38;;;;;;;2.65;1.90;;;;;;;34.49;28.27;95025.44;5089245;28;20212;-77
2022/07/21 09:27:12;;;;;;;6.03;2.22;;;;;;;34.52;27.74;95021.97;5091064;28;20261;-77
2022/07/21 09:29:50;;;;;;;6.65;2.28;;;;;;;34.56;27.17;95022.03;5091084;28;20261;-77
2022/07/21 09:32:28;;;;;;;7.10;2.78;;;;;;;34.18;28.23;95017.28;5091278;28;20538;-77
2022/07/21 09:34:59;;;;;;;2.45;2.22;;;;;;;33.76;28.04;95017.91;5091117;28;20739;-77
2022/07/21 09:37:25;;;;;;;4.60;2.60;;;;;;;33.05;28.35;95010.59;5091030;28;20306;-77
2022/07/21 09:40:00;;;;;;;4.20;2.50;;;;;;;32.69;28.34;95008.03;5091048;28;20707;-77
2022/07/21 09:42:32;;;;;;;6.32;2.28;;;;;;;32.86;28.58;95013.22;5091113;28;20608;-77
2022/07/21 09:44:59;;;;;;;2.65;2.45;;;;;;;33.07;28.92;95008.31;5091033;28;20162;-77
2022/07/21 09:47:27;;;;;;;4.20;2.42;;;;;;;33.25;27.38;95006.06;5090827;28;20668;-77
2022/07/21 09:49:54;;;;;;;4.80;2.60;;;;;;;33.26;27.62;95003.00;5090699;28;20609;-77
2022/07/21 09:52:30;;;;;;;3.28;2.13;;;;;;;33.38;29.46;95009.53;5090359;28;20177;-77
2022/07/21 09:54:59;;;;;;;3.50;1.90;;;;;;;33.58;28.89;95008.44;5090189;28;20165;-77
2022/07/21 09:57:25;;;;;;;2.55;2.25;;;;;;;33.71;30.07;95016.22;5088859;28;20208;-77
2022/07/21 09:59:51;;;;;;;7.63;2.40;;;;;;;33.82;27.39;95002.03;5090235;28;20186;-77
2022/07/21 10:02:25;;;;;;;4.63;2.15;;;;;;;33.90;28.98;95006.53;5090206;28;20184;-77
2022/07/21 10:04:57;;;;;;;3.15;2.10;;;;;;;33.80;26.72;95001.59;5089922;28;20671;-77
2022/07/21 10:07:23;;;;;;;2.28;2.00;;;;;;;33.44;27.22;94989.78;5090055;28;20587;-77
2022/07/21 10:09:49;;;;;;;5.22;2.75;;;;;;;33.31;27.93;95005.44;5090144;28;20177;-77
2022/07/21 10:12:15;;;;;;;4.47;2.35;;;;;;;33.18;26.83;95000.41;5088767;28;20599;-77
2022/07/21 10:14:42;;;;;;;2.20;2.00;;;;;;;32.81;26.80;94975.25;5089752;28;20966;-77
2022/07/21 10:17:08;;;;;;;4.70;2.50;;;;;;;32.95;27.28;95000.22;5089684;28;20169;-77
2022/07/21 10:19:53;;;;;;;3.22;2.35;;;;;;;32.93;28.54;94964.28;5089882;28;20180;-77
2022/07/21 10:22:28;;;;;;;2.72;2.30;;;;;;;33.30;28.19;95003.06;5090375;28;20602;-77
2022/07/21 10:24:54;;;;;;;2.35;2.13;;;;;;;33.32;27.45;94987.13;5088308;28;20248;-77
2022/07/21 10:27:20;;;;;;;6.07;4.50;;;;;;;33.43;27.36;94990.13;5089719;28;20201;-77
2022/07/21 10:29:48;;;;;;;5.63;2.80;;;;;;;33.38;27.54;94987.69;5089678;28;20225;-77
2022/07/21 10:32:22;;;;;;;6.45;3.03;;;;;;;33.19;27.37;94980.16;5089279;28;20216;-77
2022/07/21 10:34:49;;;;;;;8.75;3.08;;;;;;;33.06;27.30;94987.63;5089521;28;20203;-77
2022/07/21 10:37:39;;;;;;;5.10;2.30;;;;;;;32.97;29.74;94984.25;5088608;28;20170;-77
2022/07/21 10:40:26;;;;;;;2.80;2.15;;;;;;;33.00;27.93;94975.38;5089435;28;20189;-77
2022/07/21 10:43:01;;;;;;;6.13;2.40;;;;;;;33.14;28.58;94974.94;5089436;28;20185;-77
2022/07/21 10:45:32;;;;;;;4.68;2.40;;;;;;;33.08;28.94;94973.63;5089843;28;20212;-77
2022/07/21 10:47:59;;;;;;;5.18;2.70;;;;;;;33.14;28.52;94978.47;5089659;28;20642;-77
2022/07/21 10:50:38;;;;;;;3.53;2.13;;;;;;;33.23;28.05;94967.41;5089339;28;20174;-77
2022/07/21 10:53:15;;;;;;;6.30;2.30;;;;;;;33.26;28.14;94964.78;5089073;28;20204;-77
2022/07/21 10:55:52;;;;;;;3.28;2.50;;;;;;;33.26;28.53;94962.03;5089373;28;20173;-77
2022/07/21 10:58:23;;;;;;;3.38;2.67;;;;;;;33.23;28.30;94961.94;5088987;28;20666;-77
2022/07/21 11:01:02;;;;;;;4.15;2.10;;;;;;;33.17;28.37;94958.66;5089892;28;20570;-77
2022/07/21 11:03:33;;;;;;;3.13;1.90;;;;;;;33.09;26.61;94951.44;5089166;28;20173;-77
2022/07/21 11:06:24;;;;;;;8.90;2.45;;;;;;;32.55;27.72;94937.50;5088773;28;20252;-77
2022/07/21 11:08:52;;;;;;;5.00;1.83;;;;;;;32.40;28.69;94941.00;5089265;28;20264;-77
2022/07/21 11:11:24;;;;;;;2.75;2.28;;;;;;;32.46;28.93;94945.84;5088948;28;20174;-77
2022/07/21 11:13:59;;;;;;;4.13;2.70;;;;;;;32.67;29.52;94937.47;5089196;28;20260;-77
2022/07/21 11:16:46;;;;;;;5.53;2.70;;;;;;;32.85;29.12;94952.41;5087743;28;20181;-77
2022/07/21 11:19:30;;;;;;;4.28;2.10;;;;;;;32.99;28.40;94949.22;5078569;28;20212;-77
2022/07/21 11:21:58;;;;;;;2.88;2.60;;;;;;;33.01;28.58;94941.50;5089055;28;20265;-77
2022/07/21 11:24:26;;;;;;;4.07;2.30;;;;;;;32.98;28.30;94947.66;5088642;28;20235;-77
2022/07/21 11:27:06;;;;;;;2.22;2.03;;;;;;;32.98;27.90;94942.19;5088995;28;20192;-77
2022/07/21 11:29:34;;;;;;;6.75;2.40;;;;;;;33.06;27.49;94946.69;5089815;28;20184;-77
2022/07/21 11:32:01;;;;;;;3.03;2.10;;;;;;;32.91;26.62;94942.00;5089598;28;20224;-77
2022/07/21 11:34:38;;;;;;;4.80;2.53;;;;;;;32.67;26.29;94933.94;5089621;28;20181;-77